Weather at Hays Regional Airport

Public forecast

Using degrees Fahrenheit for public forecast. Weather courtesy of forecast.io.

Current aviation weather report (METAR) for Hays Regional Airport

Retrieved 2020/10/23 22:56 UTC (35 minutes ago):

KHYS 232256Z AUTO 02011KT 10SM BKN034 03/M04 A3039 RMK AO2 SLP305 T00331044

Aviation forecast (TAF) for Hays Regional Airport

Retrieved 2020/10/23 18:03 UTC (5 hours ago):

TAF COR KHYS 231800Z 2318/2418 01015G25KT P6SM BKN035 FM232000 03010KT P6SM SCT120 FM240100 VRB06KT P6SM FEW250 FM241500 15012KT P6SM FEW250